SGCO/CIO METAR and TAF weather

Enter ICAO airport designator
Station Type Date Time Source
SGCO METAR 2020/03/19 21:00 UTC NOAA

SGCO 192100Z 15010KT 9999 BKN033 27/24 Q1007


Station Type Date Time Source
SGCO Decoded METAR 2020/03/19 21:00 UTC NOAA

Concepcion, Paraguay (SGCO) 23-25S 057-18W 74M
Mar 19, 2020 - 05:00 PM EDT / 2020.03.19 2100 UTC
Wind: from the SSE (150 degrees) at 12 MPH (10 KT):0
Visibility: greater than 7 mile(s):0
Sky conditions: mostly cloudy
Temperature: 80 F (27 C)
Dew Point: 75 F (24 C)
Relative Humidity: 83%
Pressure (altimeter): 29.74 in. Hg (1007 hPa)
ob: SGCO 192100Z 15010KT 9999 BKN033 27/24 Q1007
cycle: 21

Station Type Date Time Source
SGCO TAF 2020/04/03 06:00 UTC NOAA

TAF SGCO 030522Z 0306/0406 21010KT 9999 BKN027 TX29/0318Z TN18/0309Z PROB30 0309/0311 24010KT 8000 -RA BKN020
BECMG 0313/0315 17012KT 9999 SCT020
BECMG 0316/0318 CAVOK

Example: see airport list